Time;durP1;ratioP1;P1;durP2;ratioP2;P2;SDS_P1;SDS_P2;PMS_P1;PMS_P2;Temp;Humidity;BMP_temperature;BMP_pressure;BME280_temperature;BME280_humidity;BME280_pressure;Samples;Min_cycle;Max_cycle;Signal;HPM_P1;HPM_P2
2022/08/25 00:00:37;;;;;;;7.80;5.27;;;;;;;22.66;100.00;99053.00;5070404;28;20582;-68
2022/08/25 00:03:04;;;;;;;11.47;5.90;;;;;;;22.53;100.00;99044.50;5070628;28;20200;-68
2022/08/25 00:05:31;;;;;;;14.27;6.93;;;;;;;22.47;100.00;99043.25;5070174;28;20199;-67
2022/08/25 00:07:58;;;;;;;6.97;5.60;;;;;;;22.47;100.00;99043.25;5070434;28;20196;-67
2022/08/25 00:10:25;;;;;;;9.00;6.50;;;;;;;22.44;100.00;99047.91;5069120;28;20195;-67
2022/08/25 00:12:52;;;;;;;9.87;5.57;;;;;;;22.41;100.00;99048.16;5069737;28;20203;-68
2022/08/25 00:15:21;;;;;;;11.23;6.03;;;;;;;22.37;100.00;99031.94;5071015;28;20292;-67
2022/08/25 00:17:48;;;;;;;9.87;6.00;;;;;;;22.48;100.00;99052.75;5073233;28;20226;-67
2022/08/25 00:20:15;;;;;;;11.80;6.03;;;;;;;22.48;100.00;99044.09;5074156;28;20211;-67
2022/08/25 00:22:42;;;;;;;10.20;6.43;;;;;;;22.52;100.00;99053.31;5074261;28;20207;-68
2022/08/25 00:25:10;;;;;;;9.90;6.73;;;;;;;22.32;100.00;99044.56;5073378;28;20211;-67
2022/08/25 00:27:37;;;;;;;13.90;7.07;;;;;;;22.47;100.00;99092.91;5073266;28;20258;-67
2022/08/25 00:30:06;;;;;;;10.97;7.03;;;;;;;22.44;100.00;99092.31;5071953;28;20832;-67
2022/08/25 00:32:34;;;;;;;10.33;7.13;;;;;;;22.59;100.00;99088.41;5073804;28;20202;-68
2022/08/25 00:35:01;;;;;;;8.73;6.00;;;;;;;22.51;100.00;99090.84;5074135;28;20200;-67
2022/08/25 00:37:28;;;;;;;9.17;6.50;;;;;;;22.40;100.00;99085.69;5073716;28;20215;-67
2022/08/25 00:39:55;;;;;;;7.20;6.57;;;;;;;22.38;100.00;99077.16;5073555;28;20570;-67
2022/08/25 00:42:23;;;;;;;12.10;7.33;;;;;;;22.35;100.00;99070.41;5073398;28;20203;-67
2022/08/25 00:44:50;;;;;;;13.40;7.00;;;;;;;22.34;100.00;99052.25;5073590;28;20570;-67
2022/08/25 00:47:17;;;;;;;14.40;8.27;;;;;;;22.25;100.00;99042.56;5073637;28;20200;-68
2022/08/25 00:49:49;;;;;;;7.33;6.63;;;;;;;22.21;100.00;99031.56;5072530;28;20575;-67
2022/08/25 00:52:20;;;;;;;11.57;7.70;;;;;;;22.15;100.00;99026.03;5071864;28;20246;-67
2022/08/25 00:54:51;;;;;;;8.50;6.80;;;;;;;22.10;100.00;99036.03;5072513;28;20223;-67
2022/08/25 00:57:23;;;;;;;14.50;7.30;;;;;;;22.07;100.00;99033.69;5072404;28;20211;-67
2022/08/25 00:59:49;;;;;;;11.10;6.80;;;;;;;22.08;100.00;99036.16;5073426;28;20219;-67
2022/08/25 01:02:17;;;;;;;9.60;6.80;;;;;;;22.06;100.00;99037.22;5073550;28;20241;-67
2022/08/25 01:04:45;;;;;;;14.50;7.27;;;;;;;22.04;100.00;99033.91;5073227;28;20216;-67
2022/08/25 01:07:14;;;;;;;10.43;7.50;;;;;;;22.07;100.00;99036.28;5073298;28;20200;-67
2022/08/25 01:09:42;;;;;;;12.50;7.67;;;;;;;22.11;100.00;99037.66;5073176;28;20731;-67
2022/08/25 01:12:09;;;;;;;8.57;6.60;;;;;;;22.12;100.00;99019.28;5071497;28;20202;-67
2022/08/25 01:14:37;;;;;;;6.83;5.50;;;;;;;22.12;100.00;99026.28;5071400;28;20283;-67
2022/08/25 01:17:05;;;;;;;12.20;6.37;;;;;;;22.06;100.00;99021.56;5071458;28;20221;-67
2022/08/25 01:19:32;;;;;;;10.57;7.87;;;;;;;22.08;100.00;99019.66;5070668;28;20655;-67
2022/08/25 01:22:01;;;;;;;13.07;7.60;;;;;;;22.10;100.00;99017.75;5070690;28;20199;-67
2022/08/25 01:24:35;;;;;;;10.73;7.57;;;;;;;22.04;100.00;99013.03;5070941;28;20207;-67
2022/08/25 01:27:02;;;;;;;12.53;8.10;;;;;;;22.15;100.00;99026.03;5070745;28;20204;-67
2022/08/25 01:29:30;;;;;;;15.77;6.07;;;;;;;22.17;100.00;99026.72;5072868;28;20207;-67
2022/08/25 01:31:59;;;;;;;10.37;6.30;;;;;;;22.17;100.00;99029.31;5072727;28;20203;-67
2022/08/25 01:34:28;;;;;;;11.03;8.10;;;;;;;22.19;100.00;99037.88;5073063;28;20222;-67
2022/08/25 01:36:57;;;;;;;9.23;7.13;;;;;;;22.20;100.00;99023.84;5072741;28;20230;-67
2022/08/25 01:39:28;;;;;;;8.57;6.73;;;;;;;22.20;100.00;99029.91;5072476;28;20200;-67
2022/08/25 01:42:08;;;;;;;8.40;6.67;;;;;;;22.22;100.00;99021.94;5071519;28;20207;-67
2022/08/25 01:44:37;;;;;;;8.70;6.20;;;;;;;22.22;100.00;99021.94;5072901;28;20633;-67
2022/08/25 01:47:05;;;;;;;7.00;6.00;;;;;;;22.22;100.00;99024.56;5072175;28;20206;-67
2022/08/25 01:49:32;;;;;;;12.70;7.37;;;;;;;22.21;100.00;99022.91;5072351;28;20195;-67
2022/08/25 01:52:05;;;;;;;8.27;6.60;;;;;;;22.25;100.00;99019.06;5072332;28;20204;-67
2022/08/25 01:54:33;;;;;;;9.73;6.23;;;;;;;22.26;100.00;99023.34;5072582;28;20699;-67
2022/08/25 01:57:00;;;;;;;8.07;6.23;;;;;;;22.26;100.00;99018.13;5072227;28;20226;-67
2022/08/25 01:59:27;;;;;;;9.37;6.43;;;;;;;22.17;100.00;98998.81;5072469;28;20207;-67
2022/08/25 02:01:54;;;;;;;11.40;7.50;;;;;;;22.21;100.00;99018.50;5072315;28;20223;-67
2022/08/25 02:04:21;;;;;;;9.27;6.20;;;;;;;22.20;100.00;99010.78;5072195;28;20192;-67
2022/08/25 02:06:49;;;;;;;15.87;6.50;;;;;;;22.23;100.00;99013.97;5072393;28;20196;-68
2022/08/25 02:09:17;;;;;;;10.73;6.20;;;;;;;22.22;100.00;99006.28;5072078;28;20677;-67
2022/08/25 02:11:47;;;;;;;9.50;6.30;;;;;;;22.26;100.00;99005.06;5071827;28;20196;-67
2022/08/25 02:14:15;;;;;;;8.57;6.27;;;;;;;22.22;100.00;99004.50;5072060;28;20738;-68
2022/08/25 02:16:47;;;;;;;13.70;5.97;;;;;;;22.08;100.00;98981.31;5072374;28;20596;-67
2022/08/25 02:19:14;;;;;;;8.07;6.27;;;;;;;22.12;100.00;98993.16;5070931;28;20583;-67
2022/08/25 02:21:41;;;;;;;10.90;5.60;;;;;;;22.07;100.00;98987.50;5071188;28;20207;-67
2022/08/25 02:24:09;;;;;;;9.33;5.63;;;;;;;22.02;100.00;98981.84;5070557;28;20218;-67
2022/08/25 02:26:36;;;;;;;7.03;6.07;;;;;;;21.94;100.00;98974.63;5071833;28;20200;-67
2022/08/25 02:29:05;;;;;;;6.23;5.70;;;;;;;21.97;100.00;98981.41;5071630;28;20205;-68
2022/08/25 02:31:32;;;;;;;5.57;5.03;;;;;;;21.95;100.00;98983.31;5071539;28;20204;-67
2022/08/25 02:34:00;;;;;;;4.47;4.07;;;;;;;21.86;100.00;98976.22;5071553;28;20203;-67
2022/08/25 02:36:27;;;;;;;6.27;4.70;;;;;;;21.84;100.00;98972.91;5071258;28;20219;-68
2022/08/25 02:38:54;;;;;;;5.37;4.90;;;;;;;21.74;100.00;98951.97;5070766;28;20698;-67
2022/08/25 02:41:24;;;;;;;8.80;4.33;;;;;;;21.89;100.00;98976.81;5071378;28;20207;-67
2022/08/25 02:43:51;;;;;;;6.03;4.10;;;;;;;21.90;100.00;98975.03;5071537;28;20209;-67
2022/08/25 02:46:21;;;;;;;4.70;4.23;;;;;;;21.92;100.00;98973.13;5071274;28;20226;-67
2022/08/25 02:48:48;;;;;;;5.60;3.97;;;;;;;21.94;100.00;98972.03;5071393;28;20195;-67
2022/08/25 02:51:15;;;;;;;5.17;4.03;;;;;;;21.87;100.00;98954.38;5071438;28;20226;-67
2022/08/25 02:53:44;;;;;;;4.93;4.53;;;;;;;21.89;100.00;98963.78;5071088;28;20227;-67
2022/08/25 02:56:13;;;;;;;4.67;4.27;;;;;;;21.86;100.00;98966.59;5071112;28;20248;-67
2022/08/25 02:58:41;;;;;;;3.17;2.97;;;;;;;21.88;100.00;98959.47;5070464;28;20201;-67
2022/08/25 03:01:10;;;;;;;7.37;3.97;;;;;;;21.83;100.00;98948.59;5069980;28;20203;-67
2022/08/25 03:03:40;;;;;;;7.30;3.87;;;;;;;21.76;100.00;98931.78;5070222;28;20201;-68
2022/08/25 03:06:07;;;;;;;3.73;3.43;;;;;;;21.83;100.00;98932.94;5070030;28;20679;-67
2022/08/25 03:08:35;;;;;;;3.60;3.30;;;;;;;21.92;100.00;98945.25;5070917;28;20260;-67
2022/08/25 03:11:02;;;;;;;3.43;3.17;;;;;;;21.98;100.00;98949.94;5071246;28;20203;-67
2022/08/25 03:13:29;;;;;;;8.17;4.27;;;;;;;22.09;100.00;98958.66;5070951;28;20200;-67
2022/08/25 03:15:56;;;;;;;4.50;3.70;;;;;;;22.17;100.00;98961.44;5068637;28;20221;-67
2022/08/25 03:18:23;;;;;;;4.13;3.57;;;;;;;22.25;100.00;98957.25;5070260;28;20215;-67
2022/08/25 03:20:51;;;;;;;6.60;3.87;;;;;;;22.29;100.00;98949.97;5068057;28;20527;-67
2022/08/25 03:23:18;;;;;;;6.20;3.70;;;;;;;22.32;100.00;98947.94;5069059;28;20688;-67
2022/08/25 03:28:31;;;;;;;4.03;3.73;;;;;;;22.44;100.00;98959.09;5068020;28;20194;-67
2022/08/25 03:30:59;;;;;;;5.83;3.90;;;;;;;22.47;100.00;98957.06;5069730;28;20234;-67
2022/08/25 03:33:26;;;;;;;4.27;3.87;;;;;;;22.43;100.00;98947.00;5069697;28;20275;-67
2022/08/25 03:35:54;;;;;;;6.77;4.13;;;;;;;;;;5069853;28;20200;-67
2022/08/25 03:38:22;;;;;;;5.00;4.43;;;;;;;22.52;100.00;98954.03;5070636;28;20273;-68
2022/08/25 03:40:49;;;;;;;5.87;4.77;;;;;;;22.56;100.00;98965.88;5070342;28;20204;-67
2022/08/25 03:43:17;;;;;;;5.67;5.10;;;;;;;22.48;100.00;98945.66;5070608;28;20672;-67
2022/08/25 03:45:45;;;;;;;5.37;4.97;;;;;;;22.57;100.00;98957.09;5070611;28;20219;-67
2022/08/25 03:48:13;;;;;;;7.00;5.03;;;;;;;22.61;100.00;98966.31;5070597;28;20221;-67
2022/08/25 03:50:44;;;;;;;5.17;4.70;;;;;;;22.56;100.00;98972.88;5070729;28;20199;-67
2022/08/25 03:53:13;;;;;;;14.27;5.33;;;;;;;22.52;100.00;98972.31;5070201;28;20224;-67
2022/08/25 03:55:40;;;;;;;11.43;5.83;;;;;;;22.47;100.00;98966.66;5070677;28;20584;-67
2022/08/25 03:58:07;;;;;;;6.23;4.90;;;;;;;22.38;100.00;98963.06;5070116;28;20239;-66
2022/08/25 04:00:35;;;;;;;11.73;7.00;;;;;;;22.31;100.00;98950.66;5070587;28;20222;-67
2022/08/25 04:03:02;;;;;;;5.57;5.07;;;;;;;22.40;100.00;98981.22;5069670;28;20211;-67
2022/08/25 04:05:28;;;;;;;5.60;5.10;;;;;;;22.37;100.00;98978.84;5069699;28;20420;-67
2022/08/25 04:07:55;;;;;;;7.17;4.93;;;;;;;22.35;100.00;98970.34;5069445;28;20202;-67
2022/08/25 04:10:24;;;;;;;8.57;4.43;;;;;;;22.33;100.00;98974.84;5070412;28;20633;-67
2022/08/25 04:12:50;;;;;;;8.73;5.00;;;;;;;22.33;100.00;98977.47;5070141;28;20295;-67
2022/08/25 04:15:17;;;;;;;4.87;3.73;;;;;;;22.29;100.00;98970.88;5069385;28;20208;-67
2022/08/25 04:17:44;;;;;;;4.50;4.10;;;;;;;22.25;100.00;98969.47;5067099;28;20678;-67
2022/08/25 04:20:12;;;;;;;4.03;3.77;;;;;;;22.11;100.00;98969.78;5069908;28;20206;-67
2022/08/25 04:22:39;;;;;;;6.67;4.40;;;;;;;22.05;100.00;98967.69;5070437;28;20215;-67
2022/08/25 04:25:07;;;;;;;5.00;4.67;;;;;;;21.84;100.00;98947.63;5070448;28;20656;-67
2022/08/25 04:27:36;;;;;;;7.00;4.63;;;;;;;21.84;100.00;98944.22;5070258;28;20306;-67
2022/08/25 04:30:04;;;;;;;8.40;3.80;;;;;;;21.84;100.00;98944.22;5069437;28;20199;-67
2022/08/25 04:32:31;;;;;;;6.70;4.87;;;;;;;21.94;100.00;98965.97;5069358;28;20210;-67
2022/08/25 04:34:58;;;;;;;4.57;4.27;;;;;;;21.95;100.00;98957.19;5067863;28;20203;-67
2022/08/25 04:37:25;;;;;;;6.93;4.10;;;;;;;21.98;100.00;98959.56;5062278;28;20299;-67
2022/08/25 04:39:52;;;;;;;4.00;3.60;;;;;;;21.98;100.00;98955.16;5064250;28;20217;-66
2022/08/25 04:42:20;;;;;;;4.97;4.60;;;;;;;22.09;100.00;98961.28;5065249;28;20215;-67
2022/08/25 04:44:48;;;;;;;7.43;3.73;;;;;;;22.16;100.00;98967.63;5067654;28;20671;-67
2022/08/25 04:47:15;;;;;;;6.80;4.33;;;;;;;22.24;100.00;98967.81;5069396;28;20254;-67
2022/08/25 04:49:42;;;;;;;4.63;4.30;;;;;;;22.33;100.00;98972.22;5069635;28;20214;-67
2022/08/25 04:52:09;;;;;;;5.90;4.00;;;;;;;22.39;100.00;98964.69;5069784;28;20723;-67
2022/08/25 04:54:36;;;;;;;5.77;4.50;;;;;;;22.54;100.00;98959.97;5069450;28;20333;-67
2022/08/25 04:57:03;;;;;;;4.83;4.43;;;;;;;22.66;100.00;98961.53;5069503;28;20216;-67
2022/08/25 04:59:30;;;;;;;4.43;3.87;;;;;;;22.73;100.00;98960.06;5069300;28;20212;-67
2022/08/25 05:02:01;;;;;;;4.27;3.97;;;;;;;22.74;100.00;98945.22;5071559;28;20207;-67
2022/08/25 05:04:28;;;;;;;4.17;3.83;;;;;;;22.80;100.00;98945.50;5073378;28;20279;-67
2022/08/25 05:06:54;;;;;;;3.63;3.43;;;;;;;23.04;100.00;98958.19;5068550;28;20196;-67
2022/08/25 05:09:21;;;;;;;4.57;3.70;;;;;;;23.16;100.00;98946.66;5072349;28;20219;-67
2022/08/25 05:11:48;;;;;;;3.73;3.27;;;;;;;23.22;100.00;98934.81;5071430;28;20215;-67
2022/08/25 05:14:20;;;;;;;4.13;3.83;;;;;;;23.38;100.00;98935.94;5071787;28;20210;-67
2022/08/25 05:16:47;;;;;;;3.73;3.53;;;;;;;23.39;100.00;98931.53;5068865;28;20702;-67
2022/08/25 05:19:15;;;;;;;6.50;3.80;;;;;;;23.58;100.00;98942.00;5072266;28;20200;-67
2022/08/25 05:21:42;;;;;;;5.60;3.47;;;;;;;23.70;100.00;98934.81;5071752;28;20207;-67
2022/08/25 05:24:09;;;;;;;8.07;3.90;;;;;;;23.76;100.00;98940.31;5071746;28;20207;-67
2022/08/25 05:26:37;;;;;;;4.37;4.07;;;;;;;23.82;100.00;98945.00;5072505;28;20737;-67
2022/08/25 05:29:05;;;;;;;5.23;3.93;;;;;;;23.93;100.00;98947.47;5071766;28;20211;-67
2022/08/25 05:31:32;;;;;;;6.73;4.00;;;;;;;24.01;100.00;98951.97;5070798;28;20200;-67
2022/08/25 05:33:59;;;;;;;7.30;4.37;;;;;;;24.05;100.00;98943.72;5070969;28;20216;-67
2022/08/25 05:36:29;;;;;;;5.23;3.73;;;;;;;24.06;100.00;98947.16;5069348;28;20613;-67
2022/08/25 05:38:56;;;;;;;5.00;4.35;;;;;;;24.00;100.00;98938.09;5069319;28;20441;-74
2022/08/25 05:41:29;;;;;;;4.25;3.85;;;;;;;24.14;100.00;98942.03;5069430;28;20441;-68
2022/08/25 05:43:55;;;;;;;9.03;4.40;;;;;;;24.34;100.00;98942.81;5069924;28;20261;-67
2022/08/25 05:46:23;;;;;;;8.73;4.47;;;;;;;24.30;100.00;98915.25;5070662;28;20640;-68
2022/08/25 05:48:50;;;;;;;4.80;4.40;;;;;;;24.55;100.00;98943.41;5071955;28;20196;-67
2022/08/25 05:51:18;;;;;;;6.50;4.83;;;;;;;24.70;100.00;98946.38;5072379;28;20280;-68
2022/08/25 05:53:48;;;;;;;6.13;4.53;;;;;;;24.79;100.00;98951.56;5071868;28;20224;-68
2022/08/25 05:56:15;;;;;;;9.63;5.70;;;;;;;24.97;100.00;98947.22;5072128;28;20200;-68
2022/08/25 05:58:43;;;;;;;9.73;5.63;;;;;;;24.98;100.00;98938.34;5071835;28;20220;-67
2022/08/25 06:04:03;;;;;;;9.43;6.27;;;;;;;25.20;100.00;98933.66;5068486;28;20203;-68
2022/08/25 06:06:30;;;;;;;6.10;5.70;;;;;;;25.28;100.00;98936.34;5070606;28;20212;-68
2022/08/25 06:08:58;;;;;;;6.90;6.33;;;;;;;25.29;100.00;98927.50;5069785;28;20204;-67
2022/08/25 06:11:26;;;;;;;7.37;6.67;;;;;;;25.31;100.00;98923.75;5071109;28;20215;-67
2022/08/25 06:13:53;;;;;;;8.23;7.00;;;;;;;25.53;100.00;98925.94;5069181;28;20583;-68
2022/08/25 06:16:20;;;;;;;13.90;7.20;;;;;;;25.64;100.00;98922.25;5071265;28;20200;-68
2022/08/25 06:18:47;;;;;;;11.93;7.47;;;;;;;25.64;100.00;98916.16;5070908;28;20235;-68
2022/08/25 06:21:15;;;;;;;9.87;7.17;;;;;;;25.61;100.00;98917.31;5070756;28;20210;-68
2022/08/25 06:23:42;;;;;;;12.70;7.13;;;;;;;25.74;100.00;98928.22;5072168;28;20659;-68
2022/08/25 06:26:12;;;;;;;9.97;7.83;;;;;;;25.84;100.00;98923.72;5071917;28;20200;-68
2022/08/25 06:28:38;;;;;;;11.03;8.23;;;;;;;25.71;100.00;98904.91;5072129;28;20203;-68
2022/08/25 06:31:05;;;;;;;12.57;8.63;;;;;;;25.89;100.00;98921.44;5071930;28;20199;-68
2022/08/25 06:33:32;;;;;;;9.40;8.23;;;;;;;26.03;100.00;98923.50;5071791;28;20204;-67
2022/08/25 06:35:59;;;;;;;8.67;7.50;;;;;;;26.13;100.00;98927.81;5072012;28;20200;-68
2022/08/25 06:38:27;;;;;;;12.93;8.90;;;;;;;26.30;100.00;98926.97;5071682;28;20741;-67
2022/08/25 06:40:56;;;;;;;14.50;8.63;;;;;;;26.48;100.00;98927.69;5071706;28;20206;-68
2022/08/25 06:43:24;;;;;;;9.23;7.90;;;;;;;26.58;100.00;98923.13;5071991;28;20579;-68
2022/08/25 06:45:51;;;;;;;9.60;8.17;;;;;;;26.74;100.00;98923.19;5071527;28;20663;-68
2022/08/25 06:48:18;;;;;;;9.00;8.20;;;;;;;26.94;100.00;98931.66;5071266;28;20196;-68
2022/08/25 06:50:45;;;;;;;8.90;8.07;;;;;;;27.09;100.00;98922.97;5070199;28;20192;-68
2022/08/25 06:53:12;;;;;;;12.60;8.83;;;;;;;27.23;100.00;98907.50;5070590;28;20227;-68
2022/08/25 06:55:40;;;;;;;18.23;8.80;;;;;;;27.50;98.52;98915.94;5069340;28;20196;-68
2022/08/25 06:58:08;;;;;;;11.63;9.13;;;;;;;27.69;97.72;98920.03;5070490;28;20583;-68
2022/08/25 07:00:36;;;;;;;9.33;8.47;;;;;;;27.72;95.70;98918.91;5070896;28;20196;-67
2022/08/25 07:03:04;;;;;;;9.43;8.47;;;;;;;27.77;95.54;98912.13;5071004;28;20203;-68
2022/08/25 07:05:31;;;;;;;9.03;8.10;;;;;;;27.86;95.92;98912.94;5071324;28;20208;-68
2022/08/25 07:07:58;;;;;;;12.97;8.43;;;;;;;28.05;94.46;98920.47;5070679;28;20210;-68
2022/08/25 07:10:24;;;;;;;11.40;9.33;;;;;;;28.20;94.99;98918.00;5069386;28;20200;-68
2022/08/25 07:12:51;;;;;;;11.53;8.40;;;;;;;28.45;93.82;98922.19;5070188;28;20204;-68
2022/08/25 07:15:18;;;;;;;9.40;8.37;;;;;;;28.44;90.68;98912.63;5070907;28;20556;-69
2022/08/25 07:17:47;;;;;;;9.20;8.27;;;;;;;28.56;92.58;98913.91;5070701;28;20881;-69
2022/08/25 07:20:14;;;;;;;16.87;9.33;;;;;;;28.80;91.06;98910.34;5070786;28;20579;-69
2022/08/25 07:22:41;;;;;;;19.23;9.43;;;;;;;28.77;92.13;98900.94;5070388;28;20208;-68
2022/08/25 07:25:10;;;;;;;10.57;8.50;;;;;;;28.91;91.63;98897.59;5070242;28;20206;-68
2022/08/25 07:27:37;;;;;;;12.83;8.67;;;;;;;29.01;88.82;98887.63;5070775;28;20192;-69
2022/08/25 07:30:06;;;;;;;13.03;8.73;;;;;;;29.17;87.76;98900.69;5070715;28;20211;-68
2022/08/25 07:32:33;;;;;;;10.70;8.87;;;;;;;29.42;88.31;98905.81;5070975;28;20214;-68
2022/08/25 07:35:19;;;;;;;20.10;9.73;;;;;;;29.62;86.32;98906.97;5070998;28;20196;-68
2022/08/25 07:37:48;;;;;;;11.10;9.13;;;;;;;29.80;86.96;98899.50;5070836;28;20239;-68
2022/08/25 07:40:17;;;;;;;19.08;9.02;;;;;;;29.80;82.63;98912.72;5070766;28;20682;-68
2022/08/25 07:42:44;;;;;;;14.43;8.57;;;;;;;29.90;81.27;98910.66;5070666;28;20222;-69
2022/08/25 07:45:12;;;;;;;20.10;9.70;;;;;;;29.97;79.87;98916.88;5070496;28;20199;-68
2022/08/25 07:47:39;;;;;;;15.23;8.67;;;;;;;29.87;80.80;98913.69;5070602;28;20200;-68
2022/08/25 07:50:10;;;;;;;16.20;9.30;;;;;;;29.88;84.07;98912.69;5070350;28;20188;-68
2022/08/25 07:52:37;;;;;;;16.13;8.40;;;;;;;29.92;78.44;98913.94;5070377;28;20683;-68
2022/08/25 07:55:06;;;;;;;16.42;9.48;;;;;;;30.01;81.09;98912.06;5067848;28;20220;-68
2022/08/25 07:57:34;;;;;;;16.05;8.50;;;;;;;30.09;79.07;98911.94;5070478;28;20733;-69
2022/08/25 08:00:01;;;;;;;16.50;8.60;;;;;;;30.24;80.78;98912.78;5067292;28;20677;-68
2022/08/25 08:02:27;;;;;;;16.48;8.38;;;;;;;30.41;78.72;98921.34;5070498;28;20196;-68
2022/08/25 08:04:54;;;;;;;15.60;7.32;;;;;;;30.52;80.30;98926.19;5068402;28;20204;-68
2022/08/25 08:07:25;;;;;;;9.93;8.40;;;;;;;30.63;78.93;98917.78;5069597;28;20204;-68
2022/08/25 08:09:52;;;;;;;14.13;8.00;;;;;;;30.63;76.75;98921.22;5068490;28;20199;-68
2022/08/25 08:12:19;;;;;;;17.17;7.78;;;;;;;30.70;77.04;98921.31;5069210;28;20200;-68
2022/08/25 08:14:46;;;;;;;15.20;8.60;;;;;;;30.75;79.22;98932.19;5070593;28;20215;-68
2022/08/25 08:17:13;;;;;;;17.95;7.70;;;;;;;30.85;76.99;98932.72;5070616;28;20638;-69
2022/08/25 08:19:40;;;;;;;11.48;6.97;;;;;;;30.96;74.10;98926.94;5070094;28;20215;-68
2022/08/25 08:22:07;;;;;;;11.65;6.68;;;;;;;31.02;72.13;98928.84;5068701;28;20200;-69
2022/08/25 08:24:38;;;;;;;15.02;6.78;;;;;;;30.87;70.12;98929.84;5070042;28;20231;-68
2022/08/25 08:27:07;;;;;;;13.90;6.20;;;;;;;30.99;73.45;98918.63;5070369;28;20204;-68
2022/08/25 08:29:34;;;;;;;20.48;4.45;;;;;;;30.95;66.64;98933.25;5069107;28;20239;-67
2022/08/25 08:32:01;;;;;;;17.00;5.45;;;;;;;31.20;60.96;98929.25;5068429;28;20207;-69
2022/08/25 08:34:28;;;;;;;6.60;3.58;;;;;;;31.44;64.12;98916.63;5069335;28;20203;-68
2022/08/25 08:36:55;;;;;;;25.60;4.90;;;;;;;31.65;60.07;98924.56;5071965;28;20283;-68
2022/08/25 08:39:22;;;;;;;15.68;4.65;;;;;;;31.77;59.47;98912.41;5073510;28;20224;-68
2022/08/25 08:42:18;;;;;;;20.92;4.63;;;;;;;32.10;59.49;98908.19;5074256;28;20204;-68
2022/08/25 08:45:03;;;;;;;15.75;4.97;;;;;;;32.36;59.14;98917.28;5073924;28;20590;-68
2022/08/25 08:47:43;;;;;;;12.52;3.55;;;;;;;32.53;59.49;98913.28;5074456;28;20571;-69
2022/08/25 08:50:22;;;;;;;15.48;4.15;;;;;;;32.53;54.54;98914.13;5073978;28;20188;-69
2022/08/25 08:53:00;;;;;;;17.67;4.28;;;;;;;32.61;55.25;98915.78;5073724;28;20278;-68
2022/08/25 08:55:33;;;;;;;14.68;4.72;;;;;;;32.68;57.79;98925.41;5073935;28;20202;-69
2022/08/25 08:58:05;;;;;;;12.27;6.10;;;;;;;32.58;58.31;98917.00;5073113;28;20228;-68
2022/08/25 09:00:33;;;;;;;13.70;5.68;;;;;;;32.70;60.93;98909.28;5073556;28;20645;-69
2022/08/25 09:03:06;;;;;;;14.00;5.53;;;;;;;32.73;57.97;98919.53;5072494;28;20204;-69
2022/08/25 09:05:43;;;;;;;24.25;5.90;;;;;;;32.75;62.88;98917.47;5073430;28;20680;-69
2022/08/25 09:08:13;;;;;;;16.05;6.32;;;;;;;32.76;60.39;98908.50;5072560;28;20706;-68
2022/08/25 09:10:50;;;;;;;8.13;5.43;;;;;;;32.83;58.61;98919.94;5073402;28;20196;-69
2022/08/25 09:13:28;;;;;;;18.52;5.00;;;;;;;32.81;59.53;98918.50;5073495;28;20283;-69
2022/08/25 09:18:58;;;;;;;19.10;6.68;;;;;;;32.47;61.42;98903.47;5073186;28;20212;-67
2022/08/25 09:21:33;;;;;;;11.55;6.82;;;;;;;32.34;62.07;98908.72;5073758;28;20655;-68
2022/08/25 09:24:28;;;;;;;11.63;5.53;;;;;;;32.31;61.80;98906.47;5073208;28;20211;-68
2022/08/25 09:27:09;;;;;;;19.27;5.80;;;;;;;32.29;63.70;98909.28;5073068;28;20208;-68
2022/08/25 09:29:49;;;;;;;17.98;6.28;;;;;;;32.30;64.37;98892.38;5073191;28;20207;-68
2022/08/25 09:32:18;;;;;;;20.48;5.47;;;;;;;32.46;61.82;98904.47;5073260;28;20200;-68
2022/08/25 09:34:48;;;;;;;8.95;5.47;;;;;;;32.56;57.01;98908.41;5073195;28;20208;-68
2022/08/25 09:37:14;;;;;;;14.30;5.07;;;;;;;32.75;60.24;98902.38;5072804;28;20204;-68
2022/08/25 09:39:42;;;;;;;20.63;6.28;;;;;;;33.01;61.47;98896.31;5072815;28;20223;-69
2022/08/25 09:42:08;;;;;;;12.63;5.65;;;;;;;33.18;58.87;98904.75;5072761;28;20227;-68
2022/08/25 09:44:42;;;;;;;13.10;4.95;;;;;;;33.18;60.92;98897.56;5073207;28;20579;-68
2022/08/25 09:47:21;;;;;;;17.23;4.88;;;;;;;33.21;56.24;98891.06;5072594;28;20196;-69
2022/08/25 09:49:49;;;;;;;13.25;5.60;;;;;;;33.12;58.37;98893.06;5072858;28;20219;-68
2022/08/25 09:52:22;;;;;;;11.65;5.38;;;;;;;32.71;58.61;98881.72;5072565;28;20196;-69
2022/08/25 09:54:50;;;;;;;20.17;6.28;;;;;;;32.50;59.59;98865.91;5072582;28;20222;-68
2022/08/25 09:57:34;;;;;;;12.80;5.20;;;;;;;32.42;58.59;98871.38;5072520;28;20203;-68
2022/08/25 10:00:20;;;;;;;11.75;5.03;;;;;;;32.54;63.14;98867.13;5071733;28;20239;-68
2022/08/25 10:03:04;;;;;;;12.30;6.18;;;;;;;32.70;59.96;98857.00;5070733;28;20287;-69
2022/08/25 10:05:34;;;;;;;10.73;4.80;;;;;;;32.83;57.45;98861.53;5071965;28;20691;-68
2022/08/25 10:08:03;;;;;;;11.60;4.65;;;;;;;32.70;54.65;98861.50;5072057;28;20192;-68
2022/08/25 10:10:33;;;;;;;14.88;5.70;;;;;;;32.50;55.92;98858.78;5072523;28;20203;-68
2022/08/25 10:13:02;;;;;;;15.38;6.63;;;;;;;32.59;56.65;98859.44;5072425;28;20219;-69
2022/08/25 10:15:33;;;;;;;14.48;5.53;;;;;;;32.63;60.13;98850.88;5072167;28;20196;-68
2022/08/25 10:18:23;;;;;;;15.82;6.35;;;;;;;32.58;58.47;98847.19;5072346;28;20309;-69
2022/08/25 10:21:05;;;;;;;18.73;6.18;;;;;;;32.59;59.92;98844.34;5072332;28;20282;-68
2022/08/25 10:23:35;;;;;;;13.73;4.88;;;;;;;32.66;59.35;98844.34;5072114;28;20196;-69
2022/08/25 10:26:08;;;;;;;21.13;5.80;;;;;;;32.76;57.06;98840.28;5072538;28;20199;-69
2022/08/25 10:28:46;;;;;;;15.93;5.43;;;;;;;32.85;57.39;98838.25;5071859;28;20210;-68
2022/08/25 10:31:23;;;;;;;16.85;4.47;;;;;;;32.78;55.85;98832.13;5072289;28;20667;-69
2022/08/25 10:34:05;;;;;;;16.58;5.00;;;;;;;32.77;55.38;98835.78;5071903;28;20196;-68
2022/08/25 10:36:43;;;;;;;10.27;3.70;;;;;;;32.78;59.15;98842.75;5071739;28;20207;-68
2022/08/25 10:39:25;;;;;;;12.82;4.63;;;;;;;32.95;57.49;98836.03;5072021;28;20742;-70
2022/08/25 10:42:03;;;;;;;15.02;4.78;;;;;;;33.11;54.55;98833.00;5071850;28;20200;-69
2022/08/25 10:47:49;;;;;;;21.33;4.97;;;;;;;33.38;55.36;98827.69;5071945;28;20214;-69
2022/08/25 10:50:28;;;;;;;12.07;4.18;;;;;;;33.58;58.57;98823.16;5066232;28;20295;-68
2022/08/25 10:53:23;;;;;;;18.15;5.32;;;;;;;33.65;50.77;98826.66;5071346;28;20196;-68
2022/08/25 10:56:02;;;;;;;18.08;3.67;;;;;;;33.77;50.60;98822.31;5064616;28;20204;-69
2022/08/25 10:58:47;;;;;;;24.58;4.03;;;;;;;33.82;56.10;98819.88;5070078;28;20207;-68
2022/08/25 11:01:25;;;;;;;14.75;4.18;;;;;;;33.80;50.23;98816.59;5069168;28;20209;-69
2022/08/25 11:03:59;;;;;;;24.98;3.80;;;;;;;33.91;46.99;98823.94;5071011;28;20257;-69
2022/08/25 11:06:35;;;;;;;14.38;4.25;;;;;;;33.97;46.58;98812.44;5071530;28;20191;-69
2022/08/25 11:09:07;;;;;;;18.75;3.95;;;;;;;34.14;50.98;98812.81;5071637;28;20199;-68
2022/08/25 11:11:42;;;;;;;11.23;4.03;;;;;;;34.20;50.29;98812.81;5070985;28;20203;-69
2022/08/25 11:14:16;;;;;;;11.73;3.90;;;;;;;34.33;46.23;98817.25;5071407;28;20261;-69
2022/08/25 11:16:48;;;;;;;12.43;4.22;;;;;;;34.32;47.81;98814.78;5071056;28;20258;-69
2022/08/25 11:19:22;;;;;;;8.52;3.78;;;;;;;34.18;49.63;98793.59;5071068;28;20214;-69
2022/08/25 11:21:54;;;;;;;22.42;3.63;;;;;;;34.40;49.10;98817.22;5071107;28;20273;-68
2022/08/25 11:24:42;;;;;;;18.58;3.97;;;;;;;34.35;46.26;98814.38;5071206;28;20571;-68
2022/08/25 11:27:15;;;;;;;11.38;3.25;;;;;;;34.20;46.77;98802.16;5071252;28;20211;-69
2022/08/25 11:30:00;;;;;;;12.55;3.85;;;;;;;34.33;44.99;98819.09;5070985;28;20204;-68
2022/08/25 11:32:32;;;;;;;15.88;4.13;;;;;;;34.36;48.21;98810.66;5070927;28;20282;-69
2022/08/25 11:35:02;;;;;;;18.80;4.40;;;;;;;34.19;48.54;98795.19;5070936;28;20235;-68
2022/08/25 11:37:30;;;;;;;14.82;4.38;;;;;;;34.25;53.47;98799.66;5071000;28;20245;-69
2022/08/25 11:40:14;;;;;;;17.30;2.78;;;;;;;34.40;45.61;98803.91;5070614;28;20216;-68
2022/08/25 11:42:59;;;;;;;18.33;4.35;;;;;;;34.41;46.52;98808.22;5071111;28;20214;-69
2022/08/25 11:45:46;;;;;;;17.48;3.83;;;;;;;34.32;45.85;98809.44;5071101;28;20592;-69
2022/08/25 11:48:23;;;;;;;14.48;4.18;;;;;;;34.24;45.55;98808.69;5069637;28;20200;-69